sensor_id;sensor_type;location;lat;lon;timestamp;P1;durP1;ratioP1;P2;durP2;ratioP2
55202;SDS011;41077;52.956;6.796;2023-07-31T00:01:55;578.28;;;542.75;;
55202;SDS011;41077;52.956;6.796;2023-07-31T00:04:20;684.75;;;637.97;;
55202;SDS011;41077;52.956;6.796;2023-07-31T00:06:46;655.30;;;612.30;;
55202;SDS011;41077;52.956;6.796;2023-07-31T00:09:12;638.08;;;596.00;;
55202;SDS011;41077;52.956;6.796;2023-07-31T00:11:38;640.00;;;598.45;;
55202;SDS011;41077;52.956;6.796;2023-07-31T00:14:04;627.30;;;586.50;;
55202;SDS011;41077;52.956;6.796;2023-07-31T00:16:30;636.22;;;595.83;;
55202;SDS011;41077;52.956;6.796;2023-07-31T00:18:56;675.05;;;631.78;;
55202;SDS011;41077;52.956;6.796;2023-07-31T00:21:22;637.58;;;596.03;;
55202;SDS011;41077;52.956;6.796;2023-07-31T00:23:48;681.38;;;635.05;;
55202;SDS011;41077;52.956;6.796;2023-07-31T00:26:14;764.25;;;710.47;;
55202;SDS011;41077;52.956;6.796;2023-07-31T00:28:40;741.88;;;691.60;;
55202;SDS011;41077;52.956;6.796;2023-07-31T00:31:06;741.65;;;691.60;;
55202;SDS011;41077;52.956;6.796;2023-07-31T00:33:34;695.90;;;648.13;;
55202;SDS011;41077;52.956;6.796;2023-07-31T00:36:01;679.78;;;634.97;;
55202;SDS011;41077;52.956;6.796;2023-07-31T00:38:27;641.78;;;600.90;;
55202;SDS011;41077;52.956;6.796;2023-07-31T00:40:53;629.30;;;589.10;;
55202;SDS011;41077;52.956;6.796;2023-07-31T00:43:19;669.10;;;625.78;;
55202;SDS011;41077;52.956;6.796;2023-07-31T00:45:45;759.80;;;707.72;;
55202;SDS011;41077;52.956;6.796;2023-07-31T00:48:11;698.17;;;652.40;;
55202;SDS011;41077;52.956;6.796;2023-07-31T00:50:37;720.17;;;671.75;;
55202;SDS011;41077;52.956;6.796;2023-07-31T00:53:04;714.20;;;666.03;;
55202;SDS011;41077;52.956;6.796;2023-07-31T00:55:30;700.85;;;653.25;;
55202;SDS011;41077;52.956;6.796;2023-07-31T00:57:56;680.03;;;636.30;;
55202;SDS011;41077;52.956;6.796;2023-07-31T01:00:22;709.78;;;661.72;;
55202;SDS011;41077;52.956;6.796;2023-07-31T01:02:49;727.80;;;678.28;;
55202;SDS011;41077;52.956;6.796;2023-07-31T01:05:15;685.15;;;640.38;;
55202;SDS011;41077;52.956;6.796;2023-07-31T01:07:44;664.35;;;622.40;;
55202;SDS011;41077;52.956;6.796;2023-07-31T01:10:19;722.47;;;674.40;;
55202;SDS011;41077;52.956;6.796;2023-07-31T01:12:46;695.42;;;649.50;;
55202;SDS011;41077;52.956;6.796;2023-07-31T01:15:13;741.97;;;690.55;;
55202;SDS011;41077;52.956;6.796;2023-07-31T01:17:41;701.03;;;655.40;;
55202;SDS011;41077;52.956;6.796;2023-07-31T01:27:53;798.00;;;741.58;;
55202;SDS011;41077;52.956;6.796;2023-07-31T01:30:22;732.50;;;683.85;;
55202;SDS011;41077;52.956;6.796;2023-07-31T01:32:51;779.60;;;726.67;;
55202;SDS011;41077;52.956;6.796;2023-07-31T01:35:18;705.03;;;657.72;;
55202;SDS011;41077;52.956;6.796;2023-07-31T01:37:45;697.53;;;651.22;;
55202;SDS011;41077;52.956;6.796;2023-07-31T01:40:11;843.40;;;782.58;;
55202;SDS011;41077;52.956;6.796;2023-07-31T01:42:37;725.08;;;676.20;;
55202;SDS011;41077;52.956;6.796;2023-07-31T01:45:03;743.22;;;692.53;;
55202;SDS011;41077;52.956;6.796;2023-07-31T01:47:29;744.75;;;694.95;;
55202;SDS011;41077;52.956;6.796;2023-07-31T01:49:55;682.97;;;637.47;;
55202;SDS011;41077;52.956;6.796;2023-07-31T01:52:21;741.75;;;690.55;;
55202;SDS011;41077;52.956;6.796;2023-07-31T01:54:47;783.63;;;729.42;;
55202;SDS011;41077;52.956;6.796;2023-07-31T01:57:12;700.50;;;653.58;;
55202;SDS011;41077;52.956;6.796;2023-07-31T01:59:38;702.38;;;655.63;;
55202;SDS011;41077;52.956;6.796;2023-07-31T02:02:04;800.20;;;744.10;;
55202;SDS011;41077;52.956;6.796;2023-07-31T02:04:30;683.65;;;638.03;;
55202;SDS011;41077;52.956;6.796;2023-07-31T02:06:55;703.40;;;656.92;;
55202;SDS011;41077;52.956;6.796;2023-07-31T02:09:21;720.00;;;671.97;;
55202;SDS011;41077;52.956;6.796;2023-07-31T02:11:47;750.85;;;699.42;;
55202;SDS011;41077;52.956;6.796;2023-07-31T02:14:12;724.03;;;674.38;;
55202;SDS011;41077;52.956;6.796;2023-07-31T02:16:38;684.42;;;639.10;;
55202;SDS011;41077;52.956;6.796;2023-07-31T02:19:03;747.20;;;695.75;;
55202;SDS011;41077;52.956;6.796;2023-07-31T02:21:29;705.95;;;659.20;;
55202;SDS011;41077;52.956;6.796;2023-07-31T02:23:55;697.30;;;651.70;;
55202;SDS011;41077;52.956;6.796;2023-07-31T02:26:20;624.50;;;585.97;;
55202;SDS011;41077;52.956;6.796;2023-07-31T02:28:46;648.30;;;606.72;;
55202;SDS011;41077;52.956;6.796;2023-07-31T02:31:12;676.67;;;633.50;;
55202;SDS011;41077;52.956;6.796;2023-07-31T02:33:37;686.60;;;641.22;;
55202;SDS011;41077;52.956;6.796;2023-07-31T02:36:03;691.40;;;646.60;;
55202;SDS011;41077;52.956;6.796;2023-07-31T02:38:29;711.70;;;664.67;;
55202;SDS011;41077;52.956;6.796;2023-07-31T02:40:54;668.40;;;625.70;;
55202;SDS011;41077;52.956;6.796;2023-07-31T02:43:20;798.78;;;742.38;;
55202;SDS011;41077;52.956;6.796;2023-07-31T02:45:50;802.72;;;746.80;;
55202;SDS011;41077;52.956;6.796;2023-07-31T02:48:16;764.10;;;712.05;;
55202;SDS011;41077;52.956;6.796;2023-07-31T02:50:42;725.63;;;677.15;;
55202;SDS011;41077;52.956;6.796;2023-07-31T02:53:08;713.85;;;667.03;;
55202;SDS011;41077;52.956;6.796;2023-07-31T02:55:33;739.60;;;690.00;;
55202;SDS011;41077;52.956;6.796;2023-07-31T02:57:59;724.85;;;677.85;;
55202;SDS011;41077;52.956;6.796;2023-07-31T03:00:24;790.47;;;736.70;;
55202;SDS011;41077;52.956;6.796;2023-07-31T03:02:50;735.85;;;687.05;;
55202;SDS011;41077;52.956;6.796;2023-07-31T03:05:16;749.13;;;698.72;;
55202;SDS011;41077;52.956;6.796;2023-07-31T03:07:41;826.35;;;768.60;;
55202;SDS011;41077;52.956;6.796;2023-07-31T03:10:07;809.28;;;752.85;;
55202;SDS011;41077;52.956;6.796;2023-07-31T03:12:33;688.67;;;644.45;;
55202;SDS011;41077;52.956;6.796;2023-07-31T03:14:59;879.53;;;815.13;;
55202;SDS011;41077;52.956;6.796;2023-07-31T03:17:25;823.97;;;765.88;;
55202;SDS011;41077;52.956;6.796;2023-07-31T03:19:50;771.67;;;719.72;;
55202;SDS011;41077;52.956;6.796;2023-07-31T03:22:16;712.08;;;665.42;;
55202;SDS011;41077;52.956;6.796;2023-07-31T03:24:41;752.42;;;701.80;;
55202;SDS011;41077;52.956;6.796;2023-07-31T03:27:07;882.90;;;817.60;;
55202;SDS011;41077;52.956;6.796;2023-07-31T03:29:33;860.72;;;798.22;;
55202;SDS011;41077;52.956;6.796;2023-07-31T03:31:58;831.10;;;770.83;;
55202;SDS011;41077;52.956;6.796;2023-07-31T03:34:24;726.47;;;678.70;;
55202;SDS011;41077;52.956;6.796;2023-07-31T03:36:50;795.03;;;741.28;;
55202;SDS011;41077;52.956;6.796;2023-07-31T03:39:15;792.58;;;738.85;;
55202;SDS011;41077;52.956;6.796;2023-07-31T03:41:41;884.00;;;819.17;;
55202;SDS011;41077;52.956;6.796;2023-07-31T03:44:07;749.58;;;699.72;;
55202;SDS011;41077;52.956;6.796;2023-07-31T03:46:33;919.05;;;849.25;;
55202;SDS011;41077;52.956;6.796;2023-07-31T03:48:59;769.33;;;717.15;;
55202;SDS011;41077;52.956;6.796;2023-07-31T03:51:25;749.45;;;699.33;;
55202;SDS011;41077;52.956;6.796;2023-07-31T03:53:51;911.60;;;843.50;;
55202;SDS011;41077;52.956;6.796;2023-07-31T03:56:16;819.63;;;762.40;;
55202;SDS011;41077;52.956;6.796;2023-07-31T03:58:42;842.53;;;783.15;;
55202;SDS011;41077;52.956;6.796;2023-07-31T04:01:07;867.60;;;803.15;;
55202;SDS011;41077;52.956;6.796;2023-07-31T04:03:33;735.47;;;687.30;;
55202;SDS011;41077;52.956;6.796;2023-07-31T04:05:59;792.33;;;737.85;;
55202;SDS011;41077;52.956;6.796;2023-07-31T04:08:24;851.60;;;789.92;;
55202;SDS011;41077;52.956;6.796;2023-07-31T04:10:50;888.67;;;824.35;;
55202;SDS011;41077;52.956;6.796;2023-07-31T04:13:16;725.35;;;677.25;;
55202;SDS011;41077;52.956;6.796;2023-07-31T04:15:41;699.90;;;655.35;;
55202;SDS011;41077;52.956;6.796;2023-07-31T04:18:07;836.95;;;778.00;;
55202;SDS011;41077;52.956;6.796;2023-07-31T04:20:33;790.92;;;736.83;;
55202;SDS011;41077;52.956;6.796;2023-07-31T04:22:59;787.88;;;734.42;;
55202;SDS011;41077;52.956;6.796;2023-07-31T04:25:24;810.63;;;754.33;;
55202;SDS011;41077;52.956;6.796;2023-07-31T04:27:50;775.25;;;722.53;;
55202;SDS011;41077;52.956;6.796;2023-07-31T04:30:16;780.83;;;726.10;;
55202;SDS011;41077;52.956;6.796;2023-07-31T04:32:41;750.10;;;700.92;;
55202;SDS011;41077;52.956;6.796;2023-07-31T04:35:07;846.58;;;787.05;;
55202;SDS011;41077;52.956;6.796;2023-07-31T04:37:33;810.92;;;755.28;;
55202;SDS011;41077;52.956;6.796;2023-07-31T04:39:59;682.72;;;637.55;;
55202;SDS011;41077;52.956;6.796;2023-07-31T04:42:24;824.90;;;765.90;;
55202;SDS011;41077;52.956;6.796;2023-07-31T04:44:50;862.78;;;798.90;;
55202;SDS011;41077;52.956;6.796;2023-07-31T04:47:18;688.72;;;643.92;;
55202;SDS011;41077;52.956;6.796;2023-07-31T04:49:43;754.20;;;703.47;;
55202;SDS011;41077;52.956;6.796;2023-07-31T04:52:09;730.45;;;681.67;;
55202;SDS011;41077;52.956;6.796;2023-07-31T04:54:35;755.17;;;702.80;;
55202;SDS011;41077;52.956;6.796;2023-07-31T04:57:00;849.38;;;788.30;;
55202;SDS011;41077;52.956;6.796;2023-07-31T04:59:26;810.65;;;753.65;;
55202;SDS011;41077;52.956;6.796;2023-07-31T05:01:52;716.85;;;669.83;;
55202;SDS011;41077;52.956;6.796;2023-07-31T05:04:17;744.72;;;693.97;;
55202;SDS011;41077;52.956;6.796;2023-07-31T05:06:43;757.53;;;705.95;;
55202;SDS011;41077;52.956;6.796;2023-07-31T05:09:08;705.92;;;659.42;;
55202;SDS011;41077;52.956;6.796;2023-07-31T05:11:35;780.17;;;726.03;;
55202;SDS011;41077;52.956;6.796;2023-07-31T05:14:01;780.58;;;727.92;;
55202;SDS011;41077;52.956;6.796;2023-07-31T05:16:26;757.50;;;706.00;;
55202;SDS011;41077;52.956;6.796;2023-07-31T05:18:52;779.38;;;724.92;;
55202;SDS011;41077;52.956;6.796;2023-07-31T05:21:17;815.63;;;758.35;;
55202;SDS011;41077;52.956;6.796;2023-07-31T05:23:43;713.22;;;664.75;;
55202;SDS011;41077;52.956;6.796;2023-07-31T05:26:09;739.22;;;688.97;;
55202;SDS011;41077;52.956;6.796;2023-07-31T05:28:35;632.20;;;591.03;;
55202;SDS011;41077;52.956;6.796;2023-07-31T05:31:04;657.55;;;614.35;;
55202;SDS011;41077;52.956;6.796;2023-07-31T05:33:30;685.30;;;638.78;;
55202;SDS011;41077;52.956;6.796;2023-07-31T05:35:56;673.53;;;627.55;;
55202;SDS011;41077;52.956;6.796;2023-07-31T05:38:22;717.08;;;669.03;;
55202;SDS011;41077;52.956;6.796;2023-07-31T05:40:48;711.65;;;661.80;;
55202;SDS011;41077;52.956;6.796;2023-07-31T05:43:14;729.50;;;678.38;;
55202;SDS011;41077;52.956;6.796;2023-07-31T05:45:40;675.90;;;630.28;;
55202;SDS011;41077;52.956;6.796;2023-07-31T05:48:07;727.08;;;676.50;;
55202;SDS011;41077;52.956;6.796;2023-07-31T05:50:33;693.60;;;645.70;;
55202;SDS011;41077;52.956;6.796;2023-07-31T05:52:58;672.10;;;625.83;;
55202;SDS011;41077;52.956;6.796;2023-07-31T05:55:24;648.90;;;604.55;;
55202;SDS011;41077;52.956;6.796;2023-07-31T05:57:54;682.95;;;634.92;;
55202;SDS011;41077;52.956;6.796;2023-07-31T06:00:19;765.75;;;709.95;;
55202;SDS011;41077;52.956;6.796;2023-07-31T06:02:46;722.80;;;671.40;;
55202;SDS011;41077;52.956;6.796;2023-07-31T06:05:12;718.17;;;666.03;;
55202;SDS011;41077;52.956;6.796;2023-07-31T06:07:38;718.67;;;667.60;;
55202;SDS011;41077;52.956;6.796;2023-07-31T06:10:04;740.65;;;687.97;;
55202;SDS011;41077;52.956;6.796;2023-07-31T06:12:33;691.20;;;641.85;;
55202;SDS011;41077;52.956;6.796;2023-07-31T06:15:00;782.72;;;723.92;;
55202;SDS011;41077;52.956;6.796;2023-07-31T06:17:27;827.03;;;764.67;;
55202;SDS011;41077;52.956;6.796;2023-07-31T06:19:52;662.63;;;616.35;;
55202;SDS011;41077;52.956;6.796;2023-07-31T06:22:18;720.83;;;669.95;;
55202;SDS011;41077;52.956;6.796;2023-07-31T06:24:45;761.67;;;703.85;;
55202;SDS011;41077;52.956;6.796;2023-07-31T06:27:11;658.70;;;613.53;;
55202;SDS011;41077;52.956;6.796;2023-07-31T06:29:36;768.83;;;711.83;;
55202;SDS011;41077;52.956;6.796;2023-07-31T06:32:02;679.63;;;633.58;;
55202;SDS011;41077;52.956;6.796;2023-07-31T06:34:28;629.67;;;586.45;;
55202;SDS011;41077;52.956;6.796;2023-07-31T06:36:55;727.08;;;674.85;;
55202;SDS011;41077;52.956;6.796;2023-07-31T06:39:21;773.38;;;715.80;;
55202;SDS011;41077;52.956;6.796;2023-07-31T06:41:46;766.33;;;709.97;;
55202;SDS011;41077;52.956;6.796;2023-07-31T06:44:12;770.58;;;714.15;;
55202;SDS011;41077;52.956;6.796;2023-07-31T06:46:38;757.78;;;703.20;;
55202;SDS011;41077;52.956;6.796;2023-07-31T06:49:03;702.13;;;653.92;;
55202;SDS011;41077;52.956;6.796;2023-07-31T06:51:29;729.80;;;676.45;;
55202;SDS011;41077;52.956;6.796;2023-07-31T06:53:56;736.88;;;684.30;;
55202;SDS011;41077;52.956;6.796;2023-07-31T06:56:22;715.20;;;664.97;;
55202;SDS011;41077;52.956;6.796;2023-07-31T06:58:48;828.17;;;764.92;;
55202;SDS011;41077;52.956;6.796;2023-07-31T07:01:14;765.92;;;708.60;;
55202;SDS011;41077;52.956;6.796;2023-07-31T07:03:39;712.58;;;660.67;;
55202;SDS011;41077;52.956;6.796;2023-07-31T07:06:05;780.85;;;721.38;;
55202;SDS011;41077;52.956;6.796;2023-07-31T07:08:31;795.85;;;734.60;;
55202;SDS011;41077;52.956;6.796;2023-07-31T07:10:56;719.08;;;664.97;;
55202;SDS011;41077;52.956;6.796;2023-07-31T07:13:22;821.03;;;758.58;;
55202;SDS011;41077;52.956;6.796;2023-07-31T07:15:48;806.90;;;744.42;;
55202;SDS011;41077;52.956;6.796;2023-07-31T07:18:14;781.13;;;723.70;;
55202;SDS011;41077;52.956;6.796;2023-07-31T07:20:40;689.95;;;639.13;;
55202;SDS011;41077;52.956;6.796;2023-07-31T07:23:11;676.45;;;629.22;;
55202;SDS011;41077;52.956;6.796;2023-07-31T07:25:39;703.83;;;652.20;;
55202;SDS011;41077;52.956;6.796;2023-07-31T07:28:05;654.10;;;606.65;;
55202;SDS011;41077;52.956;6.796;2023-07-31T07:30:30;737.45;;;682.67;;
55202;SDS011;41077;52.956;6.796;2023-07-31T07:32:56;645.92;;;600.35;;
55202;SDS011;41077;52.956;6.796;2023-07-31T07:35:22;790.55;;;729.33;;
55202;SDS011;41077;52.956;6.796;2023-07-31T07:37:48;717.90;;;663.38;;
55202;SDS011;41077;52.956;6.796;2023-07-31T07:40:15;762.15;;;703.85;;
55202;SDS011;41077;52.956;6.796;2023-07-31T07:42:41;832.42;;;767.60;;
55202;SDS011;41077;52.956;6.796;2023-07-31T07:45:07;750.47;;;694.80;;
55202;SDS011;41077;52.956;6.796;2023-07-31T07:47:33;732.45;;;676.72;;
55202;SDS011;41077;52.956;6.796;2023-07-31T07:49:58;728.03;;;672.53;;
55202;SDS011;41077;52.956;6.796;2023-07-31T07:52:24;732.80;;;677.05;;
55202;SDS011;41077;52.956;6.796;2023-07-31T07:54:50;720.20;;;667.70;;
55202;SDS011;41077;52.956;6.796;2023-07-31T07:57:16;725.80;;;672.22;;
55202;SDS011;41077;52.956;6.796;2023-07-31T07:59:41;868.05;;;800.20;;
55202;SDS011;41077;52.956;6.796;2023-07-31T08:02:07;806.92;;;745.60;;
55202;SDS011;41077;52.956;6.796;2023-07-31T08:04:33;844.30;;;778.45;;
55202;SDS011;41077;52.956;6.796;2023-07-31T08:06:58;718.63;;;668.67;;
55202;SDS011;41077;52.956;6.796;2023-07-31T08:09:24;783.10;;;724.55;;
55202;SDS011;41077;52.956;6.796;2023-07-31T08:11:50;763.53;;;705.80;;
55202;SDS011;41077;52.956;6.796;2023-07-31T08:14:15;819.05;;;754.65;;
55202;SDS011;41077;52.956;6.796;2023-07-31T08:16:42;807.10;;;744.80;;
55202;SDS011;41077;52.956;6.796;2023-07-31T08:19:07;775.10;;;717.58;;
55202;SDS011;41077;52.956;6.796;2023-07-31T08:21:33;759.78;;;703.97;;
55202;SDS011;41077;52.956;6.796;2023-07-31T08:23:59;739.10;;;684.42;;
55202;SDS011;41077;52.956;6.796;2023-07-31T08:26:25;771.25;;;715.55;;
55202;SDS011;41077;52.956;6.796;2023-07-31T08:28:50;741.90;;;689.58;;
55202;SDS011;41077;52.956;6.796;2023-07-31T08:31:16;747.55;;;694.60;;
55202;SDS011;41077;52.956;6.796;2023-07-31T08:33:43;774.38;;;715.53;;
55202;SDS011;41077;52.956;6.796;2023-07-31T08:36:09;805.58;;;746.88;;
55202;SDS011;41077;52.956;6.796;2023-07-31T08:38:34;763.72;;;706.92;;
55202;SDS011;41077;52.956;6.796;2023-07-31T08:41:00;825.92;;;763.78;;
55202;SDS011;41077;52.956;6.796;2023-07-31T08:43:28;742.10;;;686.22;;
55202;SDS011;41077;52.956;6.796;2023-07-31T08:45:55;681.10;;;632.85;;
55202;SDS011;41077;52.956;6.796;2023-07-31T08:48:22;786.78;;;726.70;;
55202;SDS011;41077;52.956;6.796;2023-07-31T08:50:49;792.58;;;734.63;;
55202;SDS011;41077;52.956;6.796;2023-07-31T08:53:16;830.28;;;766.38;;
55202;SDS011;41077;52.956;6.796;2023-07-31T08:55:42;871.00;;;800.38;;
55202;SDS011;41077;52.956;6.796;2023-07-31T08:58:09;711.53;;;660.30;;
55202;SDS011;41077;52.956;6.796;2023-07-31T09:00:37;771.15;;;713.40;;
55202;SDS011;41077;52.956;6.796;2023-07-31T09:03:08;809.58;;;747.40;;
55202;SDS011;41077;52.956;6.796;2023-07-31T09:05:37;822.80;;;759.22;;
55202;SDS011;41077;52.956;6.796;2023-07-31T09:08:05;946.50;;;864.25;;
55202;SDS011;41077;52.956;6.796;2023-07-31T09:10:32;691.67;;;643.00;;
55202;SDS011;41077;52.956;6.796;2023-07-31T09:12:58;765.00;;;706.97;;
55202;SDS011;41077;52.956;6.796;2023-07-31T09:15:24;831.58;;;768.13;;
55202;SDS011;41077;52.956;6.796;2023-07-31T09:17:58;717.13;;;665.50;;
55202;SDS011;41077;52.956;6.796;2023-07-31T09:20:26;735.50;;;682.53;;
55202;SDS011;41077;52.956;6.796;2023-07-31T09:22:52;704.80;;;653.13;;
55202;SDS011;41077;52.956;6.796;2023-07-31T09:25:18;844.30;;;778.25;;
55202;SDS011;41077;52.956;6.796;2023-07-31T09:28:00;809.28;;;747.15;;
55202;SDS011;41077;52.956;6.796;2023-07-31T09:30:27;835.47;;;770.78;;
55202;SDS011;41077;52.956;6.796;2023-07-31T09:33:03;791.88;;;733.05;;
55202;SDS011;41077;52.956;6.796;2023-07-31T09:35:34;815.35;;;753.60;;
55202;SDS011;41077;52.956;6.796;2023-07-31T09:38:02;849.30;;;785.75;;
55202;SDS011;41077;52.956;6.796;2023-07-31T09:40:30;741.33;;;688.60;;
55202;SDS011;41077;52.956;6.796;2023-07-31T09:42:58;761.40;;;705.47;;
55202;SDS011;41077;52.956;6.796;2023-07-31T09:45:25;819.08;;;756.22;;
55202;SDS011;41077;52.956;6.796;2023-07-31T09:47:53;806.78;;;744.83;;
55202;SDS011;41077;52.956;6.796;2023-07-31T09:50:22;750.40;;;695.42;;
55202;SDS011;41077;52.956;6.796;2023-07-31T09:52:49;836.38;;;770.70;;
55202;SDS011;41077;52.956;6.796;2023-07-31T09:55:15;876.15;;;804.97;;
55202;SDS011;41077;52.956;6.796;2023-07-31T09:57:42;711.33;;;659.78;;
55202;SDS011;41077;52.956;6.796;2023-07-31T10:00:11;763.85;;;708.17;;
55202;SDS011;41077;52.956;6.796;2023-07-31T10:02:38;829.80;;;765.03;;
55202;SDS011;41077;52.956;6.796;2023-07-31T10:05:04;833.83;;;773.25;;
55202;SDS011;41077;52.956;6.796;2023-07-31T10:07:33;780.33;;;723.15;;
55202;SDS011;41077;52.956;6.796;2023-07-31T10:10:09;791.83;;;733.38;;
55202;SDS011;41077;52.956;6.796;2023-07-31T10:12:36;833.65;;;767.92;;
55202;SDS011;41077;52.956;6.796;2023-07-31T10:15:03;778.50;;;721.33;;
55202;SDS011;41077;52.956;6.796;2023-07-31T10:17:30;787.15;;;727.78;;
55202;SDS011;41077;52.956;6.796;2023-07-31T10:19:58;860.22;;;795.67;;
55202;SDS011;41077;52.956;6.796;2023-07-31T10:22:28;864.97;;;797.53;;
55202;SDS011;41077;52.956;6.796;2023-07-31T10:24:55;878.90;;;809.92;;
55202;SDS011;41077;52.956;6.796;2023-07-31T10:27:23;822.58;;;759.65;;
55202;SDS011;41077;52.956;6.796;2023-07-31T10:29:49;897.72;;;826.42;;
55202;SDS011;41077;52.956;6.796;2023-07-31T10:32:17;838.80;;;773.33;;
55202;SDS011;41077;52.956;6.796;2023-07-31T10:34:43;875.53;;;808.70;;
55202;SDS011;41077;52.956;6.796;2023-07-31T10:39:55;897.50;;;828.17;;
55202;SDS011;41077;52.956;6.796;2023-07-31T10:42:26;904.40;;;829.78;;
55202;SDS011;41077;52.956;6.796;2023-07-31T10:45:12;929.97;;;853.22;;
55202;SDS011;41077;52.956;6.796;2023-07-31T10:47:42;925.20;;;853.25;;
55202;SDS011;41077;52.956;6.796;2023-07-31T10:50:13;895.22;;;824.63;;
55202;SDS011;41077;52.956;6.796;2023-07-31T10:52:52;908.08;;;836.65;;
55202;SDS011;41077;52.956;6.796;2023-07-31T10:55:26;924.28;;;851.03;;
55202;SDS011;41077;52.956;6.796;2023-07-31T10:57:53;870.78;;;805.90;;
55202;SDS011;41077;52.956;6.796;2023-07-31T11:00:22;938.25;;;859.08;;
55202;SDS011;41077;52.956;6.796;2023-07-31T11:05:44;958.10;;;877.85;;
55202;SDS011;41077;52.956;6.796;2023-07-31T11:08:17;935.55;;;861.88;;
55202;SDS011;41077;52.956;6.796;2023-07-31T11:10:44;1014.30;;;927.25;;
55202;SDS011;41077;52.956;6.796;2023-07-31T11:13:11;928.55;;;852.28;;
55202;SDS011;41077;52.956;6.796;2023-07-31T11:15:37;999.90;;;913.05;;
55202;SDS011;41077;52.956;6.796;2023-07-31T11:18:03;1004.55;;;917.63;;
55202;SDS011;41077;52.956;6.796;2023-07-31T11:20:31;868.70;;;802.47;;
55202;SDS011;41077;52.956;6.796;2023-07-31T11:23:01;907.42;;;834.75;;
55202;SDS011;41077;52.956;6.796;2023-07-31T11:25:31;1037.03;;;937.63;;
55202;SDS011;41077;52.956;6.796;2023-07-31T11:28:04;910.90;;;838.35;;
55202;SDS011;41077;52.956;6.796;2023-07-31T11:30:31;848.97;;;784.20;;
55202;SDS011;41077;52.956;6.796;2023-07-31T11:32:56;838.65;;;776.00;;
55202;SDS011;41077;52.956;6.796;2023-07-31T11:35:22;816.75;;;758.95;;
55202;SDS011;41077;52.956;6.796;2023-07-31T11:37:48;869.75;;;804.63;;
55202;SDS011;41077;52.956;6.796;2023-07-31T11:40:14;802.00;;;742.65;;
55202;SDS011;41077;52.956;6.796;2023-07-31T11:42:40;846.83;;;783.00;;
55202;SDS011;41077;52.956;6.796;2023-07-31T11:45:07;908.17;;;838.13;;
55202;SDS011;41077;52.956;6.796;2023-07-31T11:47:34;929.38;;;855.92;;
55202;SDS011;41077;52.956;6.796;2023-07-31T11:50:01;831.95;;;771.72;;
55202;SDS011;41077;52.956;6.796;2023-07-31T11:52:33;989.78;;;903.50;;
55202;SDS011;41077;52.956;6.796;2023-07-31T11:55:03;866.22;;;802.10;;
55202;SDS011;41077;52.956;6.796;2023-07-31T11:57:29;905.10;;;834.40;;
55202;SDS011;41077;52.956;6.796;2023-07-31T11:59:56;866.17;;;802.08;;
55202;SDS011;41077;52.956;6.796;2023-07-31T12:02:22;835.88;;;773.95;;
55202;SDS011;41077;52.956;6.796;2023-07-31T12:04:49;956.70;;;878.42;;
55202;SDS011;41077;52.956;6.796;2023-07-31T12:07:14;807.13;;;749.38;;
55202;SDS011;41077;52.956;6.796;2023-07-31T12:09:55;814.97;;;757.22;;
55202;SDS011;41077;52.956;6.796;2023-07-31T12:12:22;922.22;;;849.10;;
55202;SDS011;41077;52.956;6.796;2023-07-31T12:14:48;857.55;;;794.40;;
55202;SDS011;41077;52.956;6.796;2023-07-31T12:17:16;787.67;;;730.72;;
55202;SDS011;41077;52.956;6.796;2023-07-31T12:19:43;882.42;;;813.10;;
55202;SDS011;41077;52.956;6.796;2023-07-31T12:22:15;826.25;;;767.58;;
55202;SDS011;41077;52.956;6.796;2023-07-31T12:24:42;1009.95;;;926.25;;
55202;SDS011;41077;52.956;6.796;2023-07-31T12:27:12;793.33;;;736.03;;
55202;SDS011;41077;52.956;6.796;2023-07-31T12:29:39;845.20;;;783.05;;
55202;SDS011;41077;52.956;6.796;2023-07-31T12:32:26;971.17;;;889.30;;
55202;SDS011;41077;52.956;6.796;2023-07-31T12:34:55;844.78;;;782.78;;
55202;SDS011;41077;52.956;6.796;2023-07-31T12:37:24;980.35;;;896.40;;
55202;SDS011;41077;52.956;6.796;2023-07-31T12:39:50;950.28;;;869.88;;
55202;SDS011;41077;52.956;6.796;2023-07-31T12:42:17;867.97;;;804.33;;
55202;SDS011;41077;52.956;6.796;2023-07-31T12:44:43;858.10;;;795.42;;
55202;SDS011;41077;52.956;6.796;2023-07-31T12:47:08;895.95;;;828.22;;
55202;SDS011;41077;52.956;6.796;2023-07-31T12:49:34;854.75;;;792.17;;
55202;SDS011;41077;52.956;6.796;2023-07-31T12:52:00;953.20;;;876.95;;
55202;SDS011;41077;52.956;6.796;2023-07-31T12:54:25;931.83;;;859.78;;
55202;SDS011;41077;52.956;6.796;2023-07-31T12:56:51;786.85;;;730.83;;
55202;SDS011;41077;52.956;6.796;2023-07-31T12:59:17;850.78;;;787.72;;
55202;SDS011;41077;52.956;6.796;2023-07-31T13:01:42;792.65;;;735.58;;
55202;SDS011;41077;52.956;6.796;2023-07-31T13:04:08;891.42;;;821.22;;
55202;SDS011;41077;52.956;6.796;2023-07-31T13:06:34;893.22;;;823.13;;
55202;SDS011;41077;52.956;6.796;2023-07-31T13:08:59;946.53;;;867.67;;
55202;SDS011;41077;52.956;6.796;2023-07-31T13:11:25;864.85;;;798.97;;
55202;SDS011;41077;52.956;6.796;2023-07-31T13:13:51;773.83;;;720.45;;
55202;SDS011;41077;52.956;6.796;2023-07-31T13:16:16;803.65;;;747.63;;
55202;SDS011;41077;52.956;6.796;2023-07-31T13:18:42;836.25;;;774.30;;
55202;SDS011;41077;52.956;6.796;2023-07-31T13:21:07;804.70;;;746.28;;
55202;SDS011;41077;52.956;6.796;2023-07-31T13:23:33;766.65;;;712.75;;
55202;SDS011;41077;52.956;6.796;2023-07-31T13:25:59;839.80;;;776.65;;
55202;SDS011;41077;52.956;6.796;2023-07-31T13:28:24;801.05;;;742.42;;
55202;SDS011;41077;52.956;6.796;2023-07-31T13:30:50;750.90;;;699.28;;
55202;SDS011;41077;52.956;6.796;2023-07-31T13:33:16;855.80;;;788.55;;
55202;SDS011;41077;52.956;6.796;2023-07-31T13:35:41;900.20;;;826.90;;
55202;SDS011;41077;52.956;6.796;2023-07-31T13:38:07;827.72;;;766.30;;
55202;SDS011;41077;52.956;6.796;2023-07-31T13:40:33;917.55;;;843.60;;
55202;SDS011;41077;52.956;6.796;2023-07-31T13:42:58;786.83;;;731.33;;
55202;SDS011;41077;52.956;6.796;2023-07-31T13:45:24;824.58;;;763.85;;
55202;SDS011;41077;52.956;6.796;2023-07-31T13:47:50;699.03;;;651.30;;
55202;SDS011;41077;52.956;6.796;2023-07-31T13:50:16;830.88;;;768.67;;
55202;SDS011;41077;52.956;6.796;2023-07-31T13:52:44;829.30;;;769.55;;
55202;SDS011;41077;52.956;6.796;2023-07-31T13:55:09;813.38;;;755.78;;
55202;SDS011;41077;52.956;6.796;2023-07-31T13:57:35;872.00;;;805.75;;
55202;SDS011;41077;52.956;6.796;2023-07-31T14:00:01;911.70;;;838.00;;
55202;SDS011;41077;52.956;6.796;2023-07-31T14:02:27;959.33;;;881.80;;
55202;SDS011;41077;52.956;6.796;2023-07-31T14:04:52;841.53;;;780.42;;
55202;SDS011;41077;52.956;6.796;2023-07-31T14:07:18;776.13;;;722.08;;